Latest Weather Observations for Wattamolla

IDN60801

Issued at 7:32 pm EST Thursday 2 July 2015 (issued every 30 minutes, with the page automatically refreshed every 10 minutes)

About weather observations | Map of weather stations | Latest weather observations for NSW | Other Formats
Station Details ID: 066208 Name: WATTAMOLLA AWS Lat: -34.14 Lon: 151.12 Height: 44.0 m
Data from the previous 72 hours. | See also: Recent months for locations in New South Wales
Date/Time
EST
Temp
°C
App
Temp
°C
Dew
Point
Rel
Hum
%
Delta-T
°C
Wind Press
QNH
hPa
Press
MSL
hPa
Rain
since 9 am
mm
Dir
 
Spd
km/h
Gust
km/h
Spd
kts
Gust
kts
02/07:30pm - - - - - SW 24 39 13 21 - - -
02/07:00pm - - - - - SW 24 35 13 19 - - -
02/06:31pm - - - - - WSW 32 52 17 28 - - -
02/06:30pm - - - - - WSW 30 46 16 25 - - -
02/06:25pm - - - - - WSW 28 46 15 25 - - -
02/06:00pm - - - - - W 32 48 17 26 - - -
02/05:30pm - - - - - WNW 37 57 20 31 - - -
02/05:03pm - - - - - W 33 52 18 28 - - -
02/05:00pm - - - - - W 32 48 17 26 - - -
02/04:30pm - - - - - WNW 30 54 16 29 - - -
02/04:23pm - - - - - W 30 54 16 29 - - -
02/04:00pm - - - - - W 22 33 12 18 - - -
02/03:30pm - - - - - W 37 59 20 32 - - -
02/03:23pm - - - - - W 32 50 17 27 - - -
02/03:00pm - - - - - WSW 20 33 11 18 - - -
02/02:32pm - - - - - WNW 28 48 15 26 - - -
02/02:30pm - - - - - WNW 26 41 14 22 - - -
02/02:00pm - - - - - W 30 50 16 27 - - -
02/01:54pm - - - - - W 32 50 17 27 - - -
02/01:30pm - - - - - W 28 44 15 24 - - -
02/01:14pm - - - - - W 33 52 18 28 - - -
02/01:00pm - - - - - W 30 44 16 24 - - -
02/12:30pm - - - - - W 28 44 15 24 - - -
02/12:03pm - - - - - W 33 52 18 28 - - -
02/12:00pm - - - - - W 35 52 19 28 - - -
02/11:45am - - - - - W 32 50 17 27 - - -
02/11:30am - - - - - W 32 46 17 25 - - -
02/11:07am - - - - - W 28 46 15 25 - - -
02/11:00am - - - - - W 32 46 17 25 - - -
02/10:32am - - - - - WNW 32 50 17 27 - - -
02/10:30am - - - - - WNW 33 50 18 27 - - -
02/10:21am - - - - - WNW 30 48 16 26 - - -
02/10:00am - - - - - WNW 26 37 14 20 - - -
02/09:48am - - - - - WNW 30 48 16 26 - - -
02/09:30am - - - - - WNW 32 48 17 26 - - -
02/09:00am - - - - - W 30 46 16 25 - - -
02/08:54am - - - - - W 28 46 15 25 - - -
02/08:30am - - - - - WNW 28 39 15 21 - - -
02/08:00am - - - - - WNW 24 35 13 19 - - -
02/07:30am - - - - - WNW 28 37 15 20 - - -
02/07:00am - - - - - WNW 24 37 13 20 - - -
02/06:30am - - - - - WNW 26 35 14 19 - - -
02/06:00am - - - - - WNW 26 37 14 20 - - -
02/05:30am - - - - - WNW 24 35 13 19 - - -
02/05:00am - - - - - WNW 22 35 12 19 - - -
02/04:30am - - - - - WNW 20 32 11 17 - - -
02/04:00am - - - - - WNW 20 33 11 18 - - -
02/03:30am - - - - - W 17 26 9 14 - - -
02/03:00am - - - - - W 11 19 6 10 - - -
02/02:30am - - - - - W 22 32 12 17 - - -
02/02:00am - - - - - W 20 32 11 17 - - -
02/01:30am - - - - - WNW 26 37 14 20 - - -
02/01:00am - - - - - SSW 15 28 8 15 - - -
02/12:30am - - - - - SW 11 20 6 11 - - -
02/12:00am - - - - - W 15 17 8 9 - - -
 
Date/Time
EST
Temp
°C
App
Temp
°C
Dew
Point
Rel
Hum
%
Delta-T
°C
Wind Press
QNH
hPa
Press
MSL
hPa
Rain
since 9 am
mm
Dir
 
Spd
km/h
Gust
km/h
Spd
kts
Gust
kts
01/11:30pm - - - - - WNW 17 28 9 15 - - -
01/11:00pm - - - - - W 28 37 15 20 - - -
01/10:30pm - - - - - WNW 26 33 14 18 - - -
01/10:00pm - - - - - WNW 26 32 14 17 - - -
01/09:30pm - - - - - WNW 24 30 13 16 - - -
01/09:00pm - - - - - WNW 19 26 10 14 - - -
01/08:30pm - - - - - WNW 17 26 9 14 - - -
01/08:00pm - - - - - W 19 22 10 12 - - -
01/07:30pm - - - - - NW 11 13 6 7 - - -
01/07:00pm - - - - - W 13 15 7 8 - - -
01/06:30pm - - - - - W 11 13 6 7 - - -
01/06:00pm - - - - - WNW 11 11 6 6 - - -
01/05:30pm - - - - - NW 9 9 5 5 - - -
01/05:00pm - - - - - WNW 7 9 4 5 - - -
01/04:30pm - - - - - W 9 9 5 5 - - -
01/04:00pm - - - - - S 11 17 6 9 - - -
01/03:30pm - - - - - S 13 17 7 9 - - -
01/03:00pm - - - - - S 19 24 10 13 - - -
01/02:30pm - - - - - S 19 26 10 14 - - -
01/02:00pm - - - - - S 19 26 10 14 - - -
01/01:30pm - - - - - S 20 26 11 14 - - -
01/01:00pm - - - - - S 22 28 12 15 - - -
01/12:30pm - - - - - S 20 30 11 16 - - -
01/12:00pm - - - - - S 17 28 9 15 - - -
01/11:30am - - - - - SW 11 15 6 8 - - -
01/11:00am - - - - - SSW 11 15 6 8 - - -
01/10:30am - - - - - WSW 13 20 7 11 - - -
01/10:00am - - - - - SW 13 20 7 11 - - -
01/09:30am - - - - - SW 11 19 6 10 - - -
01/09:00am - - - - - WSW 11 17 6 9 - - -
01/08:30am - - - - - WSW 13 22 7 12 - - -
01/08:00am - - - - - WNW 17 22 9 12 - - -
01/07:30am - - - - - SW 13 19 7 10 - - -
01/07:00am - - - - - S 19 32 10 17 - - -
01/06:30am - - - - - S 28 37 15 20 - - -
01/06:00am - - - - - S 26 33 14 18 - - -
01/05:30am - - - - - WSW 11 15 6 8 - - -
01/05:00am - - - - - SW 15 22 8 12 - - -
01/04:30am - - - - - S 20 30 11 16 - - -
01/04:00am - - - - - S 32 37 17 20 - - -
01/03:30am - - - - - S 26 33 14 18 - - -
01/03:00am - - - - - S 20 30 11 16 - - -
01/02:30am - - - - - S 17 28 9 15 - - -
01/02:00am - - - - - SW 13 19 7 10 - - -
01/01:30am - - - - - SW 13 17 7 9 - - -
01/01:00am - - - - - WSW 17 17 9 9 - - -
01/12:30am - - - - - WSW 17 19 9 10 - - -
01/12:00am - - - - - W 13 15 7 8 - - -
 
Date/Time
EST
Temp
°C
App
Temp
°C
Dew
Point
Rel
Hum
%
Delta-T
°C
Wind Press
QNH
hPa
Press
MSL
hPa
Rain
since 9 am
mm
Dir
 
Spd
km/h
Gust
km/h
Spd
kts
Gust
kts
30/11:30pm - - - - - W 17 19 9 10 - - -
30/11:00pm - - - - - WNW 17 20 9 11 - - -
30/10:30pm - - - - - NW 11 13 6 7 - - -
30/10:00pm - - - - - NW 9 13 5 7 - - -
30/09:30pm - - - - - NW 11 13 6 7 - - -
30/09:00pm - - - - - NNW 7 9 4 5 - - -
30/08:30pm - - - - - NW 7 9 4 5 - - -
30/08:00pm - - - - - NW 6 9 3 5 - - -
30/07:30pm - - - - - NW 7 11 4 6 - - -
30/07:00pm - - - - - WNW 9 13 5 7 - - -
30/06:30pm - - - - - N 13 15 7 8 - - -
30/06:00pm - - - - - NNW 15 17 8 9 - - -
30/05:30pm - - - - - N 15 17 8 9 - - -
30/05:00pm - - - - - NNW 11 13 6 7 - - -
30/04:30pm - - - - - N 9 9 5 5 - - -
30/04:00pm - - - - - N 11 15 6 8 - - -
30/03:30pm - - - - - N 17 22 9 12 - - -
30/03:00pm - - - - - N 13 17 7 9 - - -
30/02:30pm - - - - - N 13 17 7 9 - - -
30/02:00pm - - - - - N 15 24 8 13 - - -
30/01:30pm - - - - - N 11 17 6 9 - - -
30/01:00pm - - - - - NNW 11 17 6 9 - - -
30/12:30pm - - - - - W 7 13 4 7 - - -
30/12:00pm - - - - - NW 11 15 6 8 - - -
30/11:30am - - - - - NW 9 13 5 7 - - -
30/11:00am - - - - - NNW 7 13 4 7 - - -
30/10:30am - - - - - NNW 7 13 4 7 - - -
30/10:00am - - - - - CALM 0 0 0 0 - - -
30/09:30am - - - - - WNW 7 13 4 7 - - -
30/09:00am - - - - - SW 9 15 5 8 - - -
30/08:30am - - - - - NW 24 35 13 19 - - -
30/08:00am - - - - - NW 24 32 13 17 - - -
30/07:30am - - - - - NNW 20 28 11 15 - - -
30/07:00am - - - - - NW 20 26 11 14 - - -
30/06:30am - - - - - NW 17 22 9 12 - - -
30/06:00am - - - - - NW 19 22 10 12 - - -
30/05:30am - - - - - NW 22 26 12 14 - - -
30/05:00am - - - - - NW 20 26 11 14 - - -
30/04:30am - - - - - NW 17 24 9 13 - - -
30/04:00am - - - - - NW 20 26 11 14 - - -
30/03:30am - - - - - NW 22 28 12 15 - - -
30/03:00am - - - - - NW 19 24 10 13 - - -
30/02:30am - - - - - NW 15 19 8 10 - - -
30/02:00am - - - - - NW 17 22 9 12 - - -
30/01:30am - - - - - NW 15 20 8 11 - - -
30/01:00am - - - - - NW 13 17 7 9 - - -
30/12:30am - - - - - NW 17 20 9 11 - - -
30/12:00am - - - - - NNW 15 17 8 9 - - -
 
Date/Time
EST
Temp
°C
App
Temp
°C
Dew
Point
Rel
Hum
%
Delta-T
°C
Wind Press
QNH
hPa
Press
MSL
hPa
Rain
since 9 am
mm
Dir
 
Spd
km/h
Gust
km/h
Spd
kts
Gust
kts
29/11:30pm - - - - - NNW 15 17 8 9 - - -
29/11:00pm - - - - - NNW 17 19 9 10 - - -
29/10:30pm - - - - - NW 19 19 10 10 - - -
29/10:00pm - - - - - NW 17 19 9 10 - - -
29/09:30pm - - - - - NW 17 19 9 10 - - -
29/09:00pm - - - - - NNW 15 15 8 8 - - -
29/08:30pm - - - - - NNW 13 15 7 8 - - -
29/08:00pm - - - - - NNW 13 15 7 8 - - -

Other Formats:

Comma delimited format used in spreadsheet applications
http://www.bom.gov.au/fwo/IDN60801/IDN60801.95752.axf

JavaScript Object Notation format (JSON) in row-major order
http://www.bom.gov.au/fwo/IDN60801/IDN60801.95752.json